createdAt,value
2019-03-10T00:00:33.986Z,99778.59
2019-03-10T00:03:01.633Z,99792.02
2019-03-10T00:05:29.265Z,99787.64
2019-03-10T00:07:56.912Z,99793.91
2019-03-10T00:10:24.557Z,99804.64
2019-03-10T00:12:52.206Z,99806.82
2019-03-10T00:15:19.946Z,99811.36
2019-03-10T00:17:47.602Z,99805.75
2019-03-10T00:20:15.244Z,99801.88
2019-03-10T00:22:42.873Z,99802.50
2019-03-10T00:25:10.516Z,99793.38
2019-03-10T00:27:38.156Z,99803.86
2019-03-10T00:30:05.807Z,99807.63
2019-03-10T00:32:33.444Z,99790.02
2019-03-10T00:35:01.092Z,99786.77
2019-03-10T00:37:28.714Z,99790.98
2019-03-10T00:39:56.364Z,99786.70
2019-03-10T00:42:24.001Z,99792.66
2019-03-10T00:44:51.640Z,99794.75
2019-03-10T00:47:19.276Z,99792.20
2019-03-10T00:49:46.931Z,99785.07
2019-03-10T00:52:14.599Z,99795.94
2019-03-10T00:54:42.227Z,99786.27
2019-03-10T00:57:09.867Z,99779.33
2019-03-10T00:59:37.504Z,99801.41
2019-03-10T01:02:05.148Z,99792.67
2019-03-10T01:04:32.892Z,99803.20
2019-03-10T01:07:01.712Z,99799.70
2019-03-10T01:09:29.666Z,99808.73
2019-03-10T01:11:57.307Z,99804.01
2019-03-10T01:14:24.971Z,99804.09
2019-03-10T01:16:52.673Z,99798.48
2019-03-10T01:19:20.307Z,99785.75
2019-03-10T01:21:47.949Z,99787.75
2019-03-10T01:24:15.575Z,99790.98
2019-03-10T01:26:43.227Z,99791.52
2019-03-10T01:29:10.870Z,99791.88
2019-03-10T01:31:38.503Z,99793.36
2019-03-10T01:34:06.140Z,99792.55
2019-03-10T01:36:33.771Z,99786.83
2019-03-10T01:39:01.410Z,99791.84
2019-03-10T01:41:29.042Z,99783.72
2019-03-10T01:43:56.676Z,99788.31
2019-03-10T01:46:24.416Z,99776.79
2019-03-10T01:48:52.079Z,99771.38
2019-03-10T01:51:19.727Z,99767.98
2019-03-10T01:53:47.357Z,99767.42
2019-03-10T01:56:15.004Z,99767.94
2019-03-10T01:58:42.636Z,99770.63
2019-03-10T02:01:10.278Z,99773.19
2019-03-10T02:03:37.937Z,99769.69
2019-03-10T02:06:05.591Z,99764.31
2019-03-10T02:08:33.231Z,99753.44
2019-03-10T02:11:00.870Z,99751.97
2019-03-10T02:13:28.508Z,99749.41
2019-03-10T02:15:56.149Z,99748.38
2019-03-10T02:18:23.811Z,99738.91
2019-03-10T02:20:51.470Z,99747.45
2019-03-10T02:23:19.126Z,99732.74
2019-03-10T02:25:46.767Z,99741.03
2019-03-10T02:28:14.403Z,99734.26
2019-03-10T02:30:42.054Z,99735.05
2019-03-10T02:33:09.688Z,99726.73
2019-03-10T02:35:37.375Z,99740.38
2019-03-10T02:38:05.086Z,99730.62
2019-03-10T02:40:32.783Z,99735.67
2019-03-10T02:43:00.410Z,99722.20
2019-03-10T02:45:28.040Z,99721.03
2019-03-10T02:47:55.688Z,99719.34
2019-03-10T02:50:23.319Z,99714.64
2019-03-10T02:52:51.015Z,99720.63
2019-03-10T02:55:18.725Z,99714.91
2019-03-10T02:57:46.372Z,99705.85
2019-03-10T03:02:44.813Z,99710.38
2019-03-10T03:05:12.580Z,99697.80
2019-03-10T03:07:40.296Z,99702.91
2019-03-10T03:10:08.199Z,99692.33
2019-03-10T03:12:35.841Z,99688.78
2019-03-10T03:15:03.473Z,99678.54
2019-03-10T03:17:31.126Z,99677.33
2019-03-10T03:19:58.760Z,99689.66
2019-03-10T03:22:26.404Z,99679.86
2019-03-10T03:24:54.050Z,99693.11
2019-03-10T03:27:21.693Z,99677.05
2019-03-10T03:29:49.336Z,99673.13
2019-03-10T03:32:16.992Z,99671.20
2019-03-10T03:34:44.635Z,99658.11
2019-03-10T03:37:12.295Z,99654.09
2019-03-10T03:39:39.961Z,99644.14
2019-03-10T03:42:07.665Z,99649.13
2019-03-10T03:44:35.287Z,99650.27
2019-03-10T03:47:02.929Z,99648.19
2019-03-10T03:49:30.567Z,99640.26
2019-03-10T03:51:58.212Z,99631.07
2019-03-10T03:54:25.938Z,99630.60
2019-03-10T03:56:53.593Z,99641.67
2019-03-10T03:59:21.227Z,99630.42
2019-03-10T04:01:52.652Z,99627.56
2019-03-10T04:04:20.284Z,99626.80
2019-03-10T04:06:47.923Z,99627.16
2019-03-10T04:09:15.560Z,99625.45
2019-03-10T04:11:43.210Z,99624.11
2019-03-10T04:14:10.827Z,99626.56
2019-03-10T04:16:38.455Z,99619.91
2019-03-10T04:19:06.115Z,99621.70
2019-03-10T04:21:33.824Z,99612.36
2019-03-10T04:24:01.485Z,99613.73
2019-03-10T04:26:29.761Z,99616.69
2019-03-10T04:28:57.400Z,99614.70
2019-03-10T04:31:25.032Z,99614.45
2019-03-10T04:33:52.674Z,99610.60
2019-03-10T04:36:20.309Z,99599.57
2019-03-10T04:38:47.943Z,99600.29
2019-03-10T04:41:15.577Z,99596.28
2019-03-10T04:43:43.219Z,99606.03
2019-03-10T04:46:10.844Z,99600.78
2019-03-10T04:51:04.402Z,99593.87
2019-03-10T04:56:07.903Z,99586.72
2019-03-10T04:58:38.586Z,99583.45
2019-03-10T05:03:33.002Z,99582.06
2019-03-10T05:06:00.642Z,99573.25
2019-03-10T05:08:28.284Z,99568.66
2019-03-10T05:10:55.919Z,99558.11
2019-03-10T05:13:23.561Z,99565.61
2019-03-10T05:15:51.199Z,99560.54
2019-03-10T05:18:18.846Z,99548.38
2019-03-10T05:20:46.482Z,99553.14
2019-03-10T05:23:14.137Z,99550.59
2019-03-10T05:25:41.774Z,99553.53
2019-03-10T05:28:09.407Z,99545.96
2019-03-10T05:30:37.066Z,99547.12
2019-03-10T05:33:04.701Z,99533.71
2019-03-10T05:35:32.403Z,99533.30
2019-03-10T05:38:00.043Z,99529.91
2019-03-10T05:40:27.704Z,99538.15
2019-03-10T05:42:55.343Z,99529.68
2019-03-10T05:45:22.977Z,99524.54
2019-03-10T05:47:50.610Z,99529.91
2019-03-10T05:50:18.254Z,99521.91
2019-03-10T05:52:45.917Z,99521.98
2019-03-10T05:55:13.572Z,99515.69
2019-03-10T05:57:41.193Z,99516.59
2019-03-10T06:00:08.827Z,99518.08
2019-03-10T06:02:36.466Z,99507.06
2019-03-10T06:05:05.922Z,99500.77
2019-03-10T06:07:33.455Z,99501.19
2019-03-10T06:10:01.091Z,99502.17
2019-03-10T06:12:28.723Z,99501.03
2019-03-10T06:14:56.374Z,99497.45
2019-03-10T06:17:24.028Z,99496.91
2019-03-10T06:19:51.670Z,99503.09
2019-03-10T06:22:19.326Z,99494.94
2019-03-10T06:24:46.985Z,99487.95
2019-03-10T06:27:14.630Z,99483.19
2019-03-10T06:29:47.275Z,99487.66
2019-03-10T06:32:14.949Z,99478.16
2019-03-10T06:34:42.585Z,99475.13
2019-03-10T06:37:10.214Z,99471.95
2019-03-10T06:39:37.856Z,99473.04
2019-03-10T06:42:05.486Z,99464.98
2019-03-10T06:44:33.129Z,99460.36
2019-03-10T06:47:00.774Z,99468.56
2019-03-10T06:49:28.410Z,99462.94
2019-03-10T06:51:56.057Z,99451.35
2019-03-10T06:54:23.700Z,99439.98
2019-03-10T06:56:51.392Z,99434.03
2019-03-10T06:59:19.089Z,99429.09
2019-03-10T07:01:46.759Z,99421.02
2019-03-10T07:04:14.391Z,99418.59
2019-03-10T07:06:47.055Z,99404.44
2019-03-10T07:09:14.711Z,99404.75
2019-03-10T07:11:42.334Z,99400.47
2019-03-10T07:14:09.984Z,99402.70
2019-03-10T07:16:37.611Z,99405.17
2019-03-10T07:19:05.249Z,99389.19
2019-03-10T07:21:32.898Z,99390.80
2019-03-10T07:24:00.552Z,99392.52
2019-03-10T07:26:28.191Z,99384.37
2019-03-10T07:29:02.139Z,99372.91
2019-03-10T07:31:44.685Z,99362.75
2019-03-10T07:34:36.443Z,99336.00
2019-03-10T07:37:23.919Z,99324.53
2019-03-10T07:39:56.794Z,99320.56
2019-03-10T07:42:30.944Z,99326.23
2019-03-10T07:45:04.336Z,99330.33
2019-03-10T07:47:37.250Z,99332.44
2019-03-10T07:50:12.254Z,99336.11
2019-03-10T07:52:50.774Z,99340.52
2019-03-10T07:55:25.820Z,99346.55
2019-03-10T07:58:06.636Z,99346.55
2019-03-10T08:00:41.724Z,99344.03
2019-03-10T08:03:16.850Z,99343.28
2019-03-10T08:06:05.439Z,99345.03
2019-03-10T08:08:42.994Z,99347.27
2019-03-10T08:11:18.033Z,99335.72
2019-03-10T08:13:54.100Z,99342.62
2019-03-10T08:16:27.025Z,99345.09
2019-03-10T08:19:05.907Z,99345.42
2019-03-10T08:21:38.863Z,99341.28
2019-03-10T08:24:13.315Z,99337.77
2019-03-10T08:26:51.016Z,99337.02
2019-03-10T08:29:30.462Z,99331.03
2019-03-10T08:32:03.458Z,99332.55
2019-03-10T08:34:39.092Z,99329.47
2019-03-10T08:37:15.039Z,99326.23
2019-03-10T08:39:56.942Z,99325.64
2019-03-10T08:42:31.897Z,99326.55
2019-03-10T08:45:06.808Z,99321.30
2019-03-10T08:47:54.317Z,99312.22
2019-03-10T08:50:29.586Z,99306.08
2019-03-10T08:53:04.556Z,99304.47
2019-03-10T08:55:43.740Z,99297.28
2019-03-10T08:58:17.851Z,99294.51
2019-03-10T09:01:05.418Z,99289.46
2019-03-10T09:03:49.578Z,99279.71
2019-03-10T09:06:27.860Z,99275.11
2019-03-10T09:09:06.870Z,99271.39
2019-03-10T09:11:53.541Z,99257.53
2019-03-10T09:14:28.643Z,99249.81
2019-03-10T09:17:03.668Z,99248.24
2019-03-10T09:19:51.284Z,99240.97
2019-03-10T09:22:29.018Z,99231.91
2019-03-10T09:25:15.707Z,99224.50
2019-03-10T09:27:58.362Z,99226.23
2019-03-10T09:30:33.455Z,99216.17
2019-03-10T09:33:11.456Z,99205.23
2019-03-10T09:35:47.627Z,99199.63
2019-03-10T09:38:22.033Z,99182.61
2019-03-10T09:40:58.499Z,99175.86
2019-03-10T09:43:33.742Z,99170.39
2019-03-10T09:46:11.760Z,99169.06
2019-03-10T09:48:47.407Z,99166.44
2019-03-10T09:51:25.309Z,99158.38
2019-03-10T09:54:02.586Z,99154.50
2019-03-10T09:56:45.071Z,99145.10
2019-03-10T09:59:19.621Z,99145.38
2019-03-10T10:01:52.535Z,99129.72
2019-03-10T10:04:25.443Z,99132.06
2019-03-10T10:07:01.756Z,99131.02
2019-03-10T10:09:48.439Z,99122.30
2019-03-10T10:12:27.810Z,99116.80
2019-03-10T10:15:02.440Z,99115.99
2019-03-10T10:17:41.058Z,99110.96
2019-03-10T10:20:21.217Z,99100.38
2019-03-10T10:23:03.698Z,99095.75
2019-03-10T10:25:41.691Z,99083.26
2019-03-10T10:28:16.745Z,99078.39
2019-03-10T10:30:50.976Z,99070.42
2019-03-10T10:33:23.816Z,99062.33
2019-03-10T10:36:01.457Z,99058.00
2019-03-10T10:38:37.575Z,99049.98
2019-03-10T10:41:14.279Z,99044.80
2019-03-10T10:44:00.905Z,99035.10
2019-03-10T10:46:33.731Z,99018.79
2019-03-10T10:49:09.750Z,99008.69
2019-03-10T10:51:46.005Z,99006.12
2019-03-10T10:54:24.346Z,99001.89
2019-03-10T10:57:00.893Z,98999.22
2019-03-10T10:59:35.828Z,98990.13
2019-03-10T11:02:10.755Z,98983.45
2019-03-10T11:05:00.399Z,98975.41
2019-03-10T11:07:38.527Z,98961.86
2019-03-10T11:10:19.815Z,98942.97
2019-03-10T11:12:52.635Z,98933.69
2019-03-10T11:15:28.552Z,98925.31
2019-03-10T11:18:09.351Z,98909.46
2019-03-10T11:20:38.734Z,98905.22
2019-03-10T11:23:26.318Z,98894.14
2019-03-10T11:26:02.444Z,98886.20
2019-03-10T11:28:35.464Z,98873.37
2019-03-10T11:31:13.995Z,98869.72
2019-03-10T11:33:59.351Z,98863.03
2019-03-10T11:36:34.851Z,98852.61
2019-03-10T11:39:07.816Z,98837.41
2019-03-10T11:41:42.188Z,98830.44
2019-03-10T11:44:21.695Z,98818.28
2019-03-10T11:47:06.275Z,98810.52
2019-03-10T11:49:52.951Z,98797.19
2019-03-10T11:52:33.390Z,98783.36
2019-03-10T11:55:08.630Z,98773.32
2019-03-10T11:57:41.553Z,98755.64
2019-03-10T12:00:18.227Z,98744.11
2019-03-10T12:02:58.183Z,98741.95
2019-03-10T12:05:37.323Z,98732.67
2019-03-10T12:08:16.955Z,98720.72
2019-03-10T12:10:44.633Z,98717.73
2019-03-10T12:13:12.331Z,98702.00
2019-03-10T12:15:39.956Z,98693.00
2019-03-10T12:18:07.600Z,98686.62
2019-03-10T12:20:35.231Z,98678.41
2019-03-10T12:23:02.882Z,98666.84
2019-03-10T12:25:30.507Z,98648.92
2019-03-10T12:27:58.154Z,98652.44
2019-03-10T12:30:25.793Z,98649.60
2019-03-10T12:32:53.447Z,98639.39
2019-03-10T12:35:21.096Z,98602.84
2019-03-10T12:37:48.731Z,98597.41
2019-03-10T12:40:16.376Z,98610.27
2019-03-10T12:42:44.015Z,98604.55
2019-03-10T12:45:11.645Z,98589.98
2019-03-10T12:47:39.295Z,98588.63
2019-03-10T12:50:06.923Z,98566.82
2019-03-10T12:52:34.568Z,98545.84
2019-03-10T12:55:02.204Z,98556.81
2019-03-10T12:57:29.846Z,98516.78
2019-03-10T12:59:57.478Z,98481.06
2019-03-10T13:02:26.146Z,98491.92
2019-03-10T13:04:53.785Z,98494.46
2019-03-10T13:07:21.422Z,98480.96
2019-03-10T13:09:49.075Z,98484.34
2019-03-10T13:12:16.710Z,98498.99
2019-03-10T13:14:44.339Z,98480.53
2019-03-10T13:17:11.975Z,98483.42
2019-03-10T13:19:39.620Z,98482.62
2019-03-10T13:22:07.263Z,98487.41
2019-03-10T13:24:34.913Z,98485.22
2019-03-10T13:27:02.545Z,98455.86
2019-03-10T13:29:30.174Z,98475.42
2019-03-10T13:31:57.811Z,98463.14
2019-03-10T13:34:25.453Z,98442.86
2019-03-10T13:36:53.107Z,98429.36
2019-03-10T13:39:20.750Z,98437.30
2019-03-10T13:41:48.387Z,98436.14
2019-03-10T13:44:16.040Z,98418.63
2019-03-10T13:46:44.015Z,98407.91
2019-03-10T13:49:11.782Z,98402.89
2019-03-10T13:51:39.433Z,98390.92
2019-03-10T13:54:07.070Z,98368.95
2019-03-10T13:56:34.718Z,98354.35
2019-03-10T13:59:02.393Z,98354.80
2019-03-10T14:01:30.042Z,98347.94
2019-03-10T14:04:00.062Z,98356.56
2019-03-10T14:06:27.049Z,98358.70
2019-03-10T14:08:54.706Z,98348.34
2019-03-10T14:11:22.340Z,98348.81
2019-03-10T14:13:49.978Z,98350.95
2019-03-10T14:16:17.611Z,98335.94
2019-03-10T14:18:45.245Z,98341.52
2019-03-10T14:21:12.875Z,98329.06
2019-03-10T14:23:40.532Z,98323.87
2019-03-10T14:26:08.158Z,98326.46
2019-03-10T14:28:35.801Z,98329.05
2019-03-10T14:31:03.442Z,98320.88
2019-03-10T14:33:31.108Z,98327.34
2019-03-10T14:35:58.833Z,98325.60
2019-03-10T14:38:26.588Z,98329.47
2019-03-10T14:40:54.278Z,98333.35
2019-03-10T14:43:21.917Z,98324.28
2019-03-10T14:45:49.558Z,98311.83
2019-03-10T14:48:17.214Z,98317.42
2019-03-10T14:50:45.976Z,98335.08
2019-03-10T14:53:13.854Z,98338.09
2019-03-10T14:55:41.499Z,98304.05
2019-03-10T14:58:09.124Z,98291.61
2019-03-10T15:00:36.769Z,98298.92
2019-03-10T15:03:04.412Z,98295.06
2019-03-10T15:05:32.106Z,98287.73
2019-03-10T15:07:59.774Z,98286.87
2019-03-10T15:10:27.406Z,98294.18
2019-03-10T15:12:55.028Z,98308.81
2019-03-10T15:15:23.421Z,98313.14
2019-03-10T15:17:51.187Z,98324.74
2019-03-10T15:20:21.302Z,98324.28
2019-03-10T15:22:48.189Z,98331.19
2019-03-10T15:25:15.825Z,98334.63
2019-03-10T15:27:43.464Z,98344.52
2019-03-10T15:30:11.105Z,98334.61
2019-03-10T15:32:38.763Z,98356.09
2019-03-10T15:35:06.391Z,98357.78
2019-03-10T15:37:34.027Z,98372.42
2019-03-10T15:40:01.736Z,98389.99
2019-03-10T15:42:29.370Z,98380.96
2019-03-10T15:44:57.010Z,98346.13
2019-03-10T15:47:24.647Z,98347.42
2019-03-10T15:49:52.314Z,98301.84
2019-03-10T15:52:19.970Z,98283.35
2019-03-10T15:54:47.631Z,98279.50
2019-03-10T15:57:15.265Z,98285.13
2019-03-10T15:59:42.910Z,98280.81
2019-03-10T16:02:10.542Z,98287.27
2019-03-10T16:04:38.191Z,98284.70
2019-03-10T16:07:05.826Z,98292.84
2019-03-10T16:09:33.472Z,98299.29
2019-03-10T16:12:01.111Z,98288.95
2019-03-10T16:14:28.751Z,98290.66
2019-03-10T16:16:56.388Z,98291.11
2019-03-10T16:19:24.018Z,98293.27
2019-03-10T16:21:51.663Z,98287.22
2019-03-10T16:24:19.318Z,98292.80
2019-03-10T16:26:47.038Z,98303.97
2019-03-10T16:29:14.678Z,98302.70
2019-03-10T16:31:42.310Z,98303.56
2019-03-10T16:34:09.947Z,98309.53
2019-03-10T16:36:37.600Z,98324.59
2019-03-10T16:39:05.308Z,98320.70
2019-03-10T16:41:32.962Z,98324.61
2019-03-10T16:44:00.674Z,98300.93
2019-03-10T16:46:28.330Z,98302.24
2019-03-10T16:48:55.968Z,98309.13
2019-03-10T16:51:49.558Z,98301.39
2019-03-10T16:54:17.320Z,98313.41
2019-03-10T16:56:44.955Z,98312.89
2019-03-10T16:59:12.616Z,98315.42
2019-03-10T17:01:40.260Z,98320.15
2019-03-10T17:04:07.915Z,98317.56
2019-03-10T17:06:35.618Z,98317.12
2019-03-10T17:09:04.833Z,98330.48
2019-03-10T17:11:32.610Z,98336.90
2019-03-10T17:14:00.261Z,98341.22
2019-03-10T17:16:27.920Z,98350.34
2019-03-10T17:18:55.567Z,98371.97
2019-03-10T17:21:23.351Z,98365.56
2019-03-10T17:23:51.052Z,98374.19
2019-03-10T17:26:18.695Z,98347.98
2019-03-10T17:28:46.350Z,98350.55
2019-03-10T17:31:14.066Z,98353.59
2019-03-10T17:33:41.698Z,98374.19
2019-03-10T17:36:09.345Z,98362.65
2019-03-10T17:38:37.024Z,98361.28
2019-03-10T17:41:04.667Z,98361.28
2019-03-10T17:43:32.298Z,98368.63
2019-03-10T17:45:59.942Z,98342.88
2019-03-10T17:48:27.583Z,98359.16
2019-03-10T17:50:55.227Z,98369.93
2019-03-10T17:53:22.869Z,98366.88
2019-03-10T17:55:50.662Z,98368.13
2019-03-10T17:58:18.314Z,98375.94
2019-03-10T18:00:45.959Z,98371.63
2019-03-10T18:03:13.596Z,98364.73
2019-03-10T18:05:41.250Z,98380.34
2019-03-10T18:08:08.915Z,98384.21
2019-03-10T18:10:36.547Z,98391.11
2019-03-10T18:13:04.178Z,98418.23
2019-03-10T18:15:32.206Z,98382.48
2019-03-10T18:17:59.855Z,98386.80
2019-03-10T18:20:27.494Z,98378.19
2019-03-10T18:22:55.130Z,98379.45
2019-03-10T18:25:22.785Z,98401.00
2019-03-10T18:27:50.420Z,98398.78
2019-03-10T18:30:18.166Z,98397.58
2019-03-10T18:32:45.852Z,98404.05
2019-03-10T18:35:13.501Z,98392.84
2019-03-10T18:37:41.144Z,98418.23
2019-03-10T18:40:08.904Z,98416.95
2019-03-10T18:42:36.554Z,98402.75
2019-03-10T18:45:04.244Z,98432.91
2019-03-10T18:47:31.876Z,98401.01
2019-03-10T18:49:59.522Z,98410.08
2019-03-10T18:52:27.162Z,98402.75
2019-03-10T18:54:54.803Z,98449.69
2019-03-10T18:57:22.456Z,98424.27
2019-03-10T18:59:50.097Z,98401.02
2019-03-10T19:02:17.738Z,98358.38
2019-03-10T19:04:45.400Z,98396.69
2019-03-10T19:07:13.051Z,98401.84
2019-03-10T19:09:40.691Z,98423.81
2019-03-10T19:12:08.338Z,98403.15
2019-03-10T19:14:35.970Z,98422.50
2019-03-10T19:17:03.630Z,98422.05
2019-03-10T19:19:32.117Z,98406.09
2019-03-10T19:21:59.911Z,98424.66
2019-03-10T19:24:27.605Z,98383.80
2019-03-10T19:26:55.254Z,98415.99
2019-03-10T19:29:23.017Z,98404.02
2019-03-10T19:31:50.663Z,98424.15
2019-03-10T19:34:18.306Z,98443.07
2019-03-10T19:36:56.098Z,98448.28
2019-03-10T19:39:15.307Z,98451.30
2019-03-10T19:41:42.952Z,98486.11
2019-03-10T19:44:10.597Z,98465.05
2019-03-10T19:46:38.256Z,98476.71
2019-03-10T19:49:05.885Z,98473.70
2019-03-10T19:51:33.531Z,98481.84
2019-03-10T19:54:01.178Z,98479.30
2019-03-10T19:56:28.831Z,98486.11
2019-03-10T19:58:56.519Z,98472.31
2019-03-10T20:01:24.158Z,98476.69
2019-03-10T20:03:51.815Z,98532.08
2019-03-10T20:06:19.449Z,98532.08
2019-03-10T20:08:47.072Z,98520.08
2019-03-10T20:11:14.709Z,98531.30
2019-03-10T20:13:42.402Z,98557.01
2019-03-10T20:16:10.080Z,98515.76
2019-03-10T20:18:37.795Z,98509.71
2019-03-10T20:21:05.442Z,98548.88
2019-03-10T20:23:33.101Z,98573.78
2019-03-10T20:26:00.740Z,98524.67
2019-03-10T20:28:28.390Z,98547.94
2019-03-10T20:30:56.059Z,98557.84
2019-03-10T20:33:23.695Z,98559.20
2019-03-10T20:35:51.355Z,98560.78
2019-03-10T20:38:18.991Z,98562.91
2019-03-10T20:40:46.623Z,98565.52
2019-03-10T20:43:14.258Z,98574.46
2019-03-10T20:45:41.913Z,98583.49
2019-03-10T20:48:09.634Z,98631.13
2019-03-10T20:50:37.274Z,98601.64
2019-03-10T20:53:04.919Z,98624.81
2019-03-10T20:55:32.644Z,98682.21
2019-03-10T20:58:00.279Z,98714.30
2019-03-10T21:00:27.937Z,98727.19
2019-03-10T21:02:55.587Z,98747.12
2019-03-10T21:05:23.235Z,98770.29
2019-03-10T21:07:50.872Z,98871.23
2019-03-10T21:10:18.506Z,98873.83
2019-03-10T21:12:46.266Z,98881.66
2019-03-10T21:15:13.874Z,98929.72
2019-03-10T21:17:41.512Z,98964.17
2019-03-10T21:20:09.153Z,98977.64
2019-03-10T21:22:36.797Z,98976.47
2019-03-10T21:25:04.432Z,99033.98
2019-03-10T21:27:32.080Z,99068.05
2019-03-10T21:29:59.720Z,99089.30
2019-03-10T21:32:27.363Z,99094.73
2019-03-10T21:34:55.029Z,99137.55
2019-03-10T21:37:22.674Z,99150.52
2019-03-10T21:39:50.311Z,99151.27
2019-03-10T21:42:17.976Z,99184.42
2019-03-10T21:44:45.619Z,99211.73
2019-03-10T22:01:48.722Z,99312.83
2019-03-10T22:04:16.356Z,99326.42
2019-03-10T22:06:44.011Z,99336.63
2019-03-10T22:09:11.653Z,99373.08
2019-03-10T22:11:39.330Z,99366.09
2019-03-10T22:14:06.975Z,99390.54
2019-03-10T22:16:34.607Z,99413.63
2019-03-10T22:19:02.258Z,99410.83
2019-03-10T22:21:29.915Z,99429.77
2019-03-10T22:23:59.604Z,99443.03
2019-03-10T22:26:27.094Z,99456.47
2019-03-10T22:28:54.816Z,99458.91
2019-03-10T22:31:22.578Z,99478.64
2019-03-10T22:33:50.224Z,99488.28
2019-03-10T22:36:17.946Z,99486.70
2019-03-10T22:38:45.600Z,99499.07
2019-03-10T22:41:13.220Z,99510.34
2019-03-10T22:43:40.887Z,99521.04
2019-03-10T22:46:08.509Z,99520.86
2019-03-10T22:48:36.154Z,99523.42
2019-03-10T22:51:03.798Z,99521.66
2019-03-10T22:53:31.444Z,99521.04
2019-03-10T22:55:59.087Z,99538.48
2019-03-10T22:58:26.750Z,99533.02
2019-03-10T23:00:55.145Z,99542.48
2019-03-10T23:03:22.786Z,99552.75
2019-03-10T23:05:50.436Z,99555.66
2019-03-10T23:08:18.133Z,99551.08
2019-03-10T23:10:45.769Z,99552.36
2019-03-10T23:13:13.494Z,99554.60
2019-03-10T23:15:41.135Z,99561.34
2019-03-10T23:18:08.775Z,99566.41
2019-03-10T23:20:36.430Z,99572.44
2019-03-10T23:23:04.081Z,99572.27
2019-03-10T23:25:31.723Z,99575.48
2019-03-10T23:27:59.515Z,99573.06
2019-03-10T23:30:27.166Z,99588.13
2019-03-10T23:32:54.811Z,99592.70
2019-03-10T23:35:22.451Z,99589.89
2019-03-10T23:37:50.088Z,99590.47
2019-03-10T23:40:17.722Z,99585.53
2019-03-10T23:42:45.455Z,99597.34
2019-03-10T23:45:13.088Z,99588.97
2019-03-10T23:47:40.741Z,99589.19
2019-03-10T23:50:08.410Z,99599.41
2019-03-10T23:52:36.047Z,99597.13
2019-03-10T23:55:03.798Z,99602.50
2019-03-10T23:57:31.432Z,99602.41
2019-03-10T23:59:59.175Z,99615.02
